Sadorus, IL (61872)

7:09 AM CDT on June 03, 2015 (GMT -0500)
KILCHAMP15 | | Change Station
CLOSE
Current Station
Personal Weather Station
Location: Champaign, IL
Elevation: 728 ft
Nearby Weather Stations

Elev 728 ft 40.03 °N, 88.30 °W | Updated 1 minute ago

Mostly Cloudy
Mostly Cloudy
59.2 °F
Feels Like 59.2 °F
N
2.0
Wind Variable Wind from SE
Gusts 0.0 mph

Today
High -- | Low -- °F
--% Chance of Precip.
Yesterday
High -- | Low -- °F
Precip. -- in
5:26 AM 8:17 PM
Full, 99% visible
Pressure 30.08 in
Visibility 5.0 miles
Clouds Mostly Cloudy 1100 ft
Dew Point 58 °F
Humidity 95%
Rainfall 0.00 in
Snow Depth Not available.
UV 0 out of 12
Pollen 7.70 out of 12
Air Quality Not available.
Flu Activity Sporadic
SPECI KCMI 031135Z 00000KT 5SM BR BKN011 13/12 A3008 RMK AO2 T01330117

More Conditions Fewer Conditions

Pressure 30.08 in
Visibility 5.0 miles
Clouds Mostly Cloudy 1100 ft
Dew Point 58 °F
Humidity 95%
Rainfall 0.00 in
Snow Depth Not available.
UV 0 out of 12
Pollen 7.70 out of 12
Air Quality Not available.
Flu Activity Sporadic
SPECI KCMI 031135Z 00000KT 5SM BR BKN011 13/12 A3008 RMK AO2 T01330117

More Conditions Fewer Conditions

10-Day Weather Forecast

×

Almanac

Astronomy

Jun. 03, 2015 Rise Set
Actual Time
Civil Twilight
Nautical Twilight
Astronomical Twilight
Moon
Length of Visible Light
Length of Day
Tomorrow will be .
, % of the Moon is Illuminated

Today's Extremes

State Highs State Lows

Community

WunderPhotos

Upload Photos

1,826,205 photos uploaded!

WunderBlogs® & News

Nearby

Air Quality

  Air Quality AQ Index Pollutant
Not available.

Snow Depth

Station Depth Elevation

Earthquake Activity

City Distance Mag. Time & Date
Minimum magnitude displayed is 2.5.

Coastal Water Temperatures

Place Temperature

Stations

Nearby Weather Stations

Station Location Temp. Windchill Dew Point Humidity Wind Precip. Elev Updated Type